createdAt,value
2023-03-29T00:02:13.316Z,57.73
2023-03-29T00:07:23.875Z,57.71
2023-03-29T00:12:31.523Z,57.82
2023-03-29T00:17:38.750Z,57.85
2023-03-29T00:22:46.919Z,57.99
2023-03-29T00:27:54.001Z,58.14
2023-03-29T00:33:01.191Z,58.17
2023-03-29T00:38:08.388Z,58.17
2023-03-29T00:43:16.952Z,58.27
2023-03-29T00:48:29.112Z,58.44
2023-03-29T00:53:39.631Z,58.48
2023-03-29T00:58:55.086Z,58.48
2023-03-29T01:04:08.621Z,58.58
2023-03-29T01:09:17.500Z,58.61
2023-03-29T01:14:31.168Z,58.72
2023-03-29T01:19:46.584Z,58.63
2023-03-29T01:25:06.612Z,58.83
2023-03-29T01:30:17.519Z,58.85
2023-03-29T01:35:32.740Z,59.00
2023-03-29T01:40:40.300Z,59.09
2023-03-29T01:45:51.730Z,59.12
2023-03-29T01:51:06.369Z,59.17
2023-03-29T01:56:19.927Z,59.36
2023-03-29T02:01:33.190Z,59.29
2023-03-29T02:06:41.776Z,59.16
2023-03-29T02:11:49.995Z,59.27
2023-03-29T02:16:57.508Z,59.21
2023-03-29T02:22:06.794Z,59.28
2023-03-29T02:27:14.067Z,59.26
2023-03-29T02:32:27.511Z,59.34
2023-03-29T02:37:41.111Z,59.16
2023-03-29T02:42:50.355Z,59.36
2023-03-29T02:48:01.465Z,59.35
2023-03-29T02:53:16.039Z,59.43
2023-03-29T02:58:26.808Z,59.45
2023-03-29T03:03:34.311Z,59.59
2023-03-29T03:08:42.598Z,59.63
2023-03-29T03:13:51.760Z,59.62
2023-03-29T03:18:59.153Z,59.77
2023-03-29T03:24:08.473Z,59.83
2023-03-29T03:29:16.432Z,59.79
2023-03-29T03:34:45.119Z,59.91
2023-03-29T03:39:52.460Z,60.11
2023-03-29T03:45:00.224Z,60.12
2023-03-29T03:50:33.642Z,60.11
2023-03-29T03:55:41.689Z,59.96
2023-03-29T04:00:53.441Z,59.91
2023-03-29T04:06:10.043Z,60.01
2023-03-29T04:11:37.404Z,60.05
2023-03-29T04:16:45.421Z,60.04
2023-03-29T04:22:18.199Z,60.05
2023-03-29T04:27:26.047Z,60.21
2023-03-29T04:32:34.221Z,60.26
2023-03-29T04:37:47.035Z,60.25
2023-03-29T04:42:56.457Z,60.42
2023-03-29T04:48:04.203Z,60.64
2023-03-29T04:53:10.066Z,60.82
2023-03-29T04:58:18.983Z,60.80
2023-03-29T05:03:27.905Z,60.86
2023-03-29T05:08:41.239Z,60.86
2023-03-29T05:14:18.243Z,60.86
2023-03-29T05:19:26.000Z,60.99
2023-03-29T05:24:33.452Z,61.01
2023-03-29T05:29:52.490Z,61.28
2023-03-29T05:35:11.451Z,61.53
2023-03-29T05:40:20.029Z,61.80
2023-03-29T05:45:53.395Z,61.70
2023-03-29T05:51:03.702Z,61.92
2023-03-29T05:56:12.323Z,61.62
2023-03-29T06:01:20.618Z,61.59
2023-03-29T06:06:48.773Z,61.61
2023-03-29T06:11:57.716Z,61.33
2023-03-29T06:17:25.241Z,61.29
2023-03-29T06:22:33.389Z,60.98
2023-03-29T06:27:40.904Z,60.56
2023-03-29T06:32:50.656Z,60.48
2023-03-29T06:38:11.402Z,60.03
2023-03-29T06:43:47.983Z,59.69
2023-03-29T06:48:56.351Z,59.41
2023-03-29T06:54:06.243Z,59.65
2023-03-29T06:59:14.782Z,59.34
2023-03-29T07:04:46.292Z,59.03
2023-03-29T07:10:01.914Z,58.95
2023-03-29T07:15:33.308Z,58.52
2023-03-29T07:21:07.941Z,58.07
2023-03-29T07:26:28.541Z,58.24
2023-03-29T07:31:41.103Z,57.98
2023-03-29T07:37:11.211Z,57.76
2023-03-29T07:42:22.654Z,57.27
2023-03-29T07:47:31.826Z,56.53
2023-03-29T07:52:42.373Z,56.21
2023-03-29T07:57:51.529Z,56.03
2023-03-29T08:03:05.843Z,55.97
2023-03-29T08:08:14.406Z,55.74
2023-03-29T08:13:30.825Z,56.16
2023-03-29T08:19:01.226Z,55.94
2023-03-29T08:24:21.486Z,55.89
2023-03-29T08:29:33.431Z,55.60
2023-03-29T08:34:41.235Z,55.44
2023-03-29T08:40:09.183Z,55.02
2023-03-29T08:45:35.616Z,54.87
2023-03-29T08:50:50.157Z,54.70
2023-03-29T08:56:01.931Z,54.40
2023-03-29T09:01:35.182Z,54.16
2023-03-29T09:06:43.557Z,53.71
2023-03-29T09:12:12.079Z,53.48
2023-03-29T09:17:32.173Z,52.88
2023-03-29T09:22:49.932Z,52.72
2023-03-29T09:28:05.782Z,52.41
2023-03-29T09:33:27.273Z,52.19
2023-03-29T09:39:05.010Z,51.30
2023-03-29T09:44:30.234Z,50.49
2023-03-29T09:49:47.217Z,50.69
2023-03-29T09:54:56.099Z,50.89
2023-03-29T10:00:36.939Z,50.73
2023-03-29T10:05:47.322Z,50.25
2023-03-29T10:10:57.729Z,50.18
2023-03-29T10:16:08.326Z,50.05
2023-03-29T10:21:20.318Z,50.03
2023-03-29T10:26:32.952Z,49.74
2023-03-29T10:31:42.794Z,49.58
2023-03-29T10:36:57.684Z,49.45
2023-03-29T10:42:06.327Z,49.24
2023-03-29T10:47:19.762Z,48.78
2023-03-29T10:52:27.934Z,48.86
2023-03-29T10:57:46.280Z,49.08
2023-03-29T11:03:00.557Z,48.99
2023-03-29T11:08:27.961Z,48.83
2023-03-29T11:13:44.393Z,48.97
2023-03-29T11:19:05.195Z,48.48
2023-03-29T11:24:48.904Z,48.54
2023-03-29T11:30:08.224Z,48.45
2023-03-29T11:35:31.475Z,48.49
2023-03-29T11:40:48.313Z,48.40
2023-03-29T11:46:02.712Z,48.48
2023-03-29T11:51:18.213Z,48.34
2023-03-29T11:56:32.480Z,48.12
2023-03-29T12:01:44.857Z,48.30
2023-03-29T12:07:03.051Z,48.30
2023-03-29T12:12:16.334Z,48.19
2023-03-29T12:17:29.796Z,48.05
2023-03-29T12:22:38.575Z,48.19
2023-03-29T12:27:55.033Z,48.12
2023-03-29T12:33:21.883Z,47.94
2023-03-29T12:38:35.858Z,47.97
2023-03-29T12:44:09.556Z,47.91
2023-03-29T12:49:48.517Z,47.87
2023-03-29T12:55:01.579Z,47.96
2023-03-29T13:00:28.204Z,47.84
2023-03-29T13:05:39.429Z,47.54
2023-03-29T13:10:55.894Z,47.41
2023-03-29T13:16:15.929Z,47.56
2023-03-29T13:21:32.328Z,47.56
2023-03-29T13:26:54.360Z,47.41
2023-03-29T13:32:18.139Z,47.31
2023-03-29T13:37:40.416Z,47.16
2023-03-29T13:43:06.240Z,47.22
2023-03-29T13:48:29.502Z,47.37
2023-03-29T13:53:46.340Z,47.05
2023-03-29T13:59:19.025Z,47.22
2023-03-29T14:04:30.724Z,47.32
2023-03-29T14:09:43.736Z,47.18
2023-03-29T14:14:59.198Z,47.28
2023-03-29T14:20:10.464Z,47.17
2023-03-29T14:25:21.391Z,47.18
2023-03-29T14:30:32.124Z,47.07
2023-03-29T14:35:40.565Z,46.84
2023-03-29T14:40:48.554Z,46.81
2023-03-29T14:45:54.552Z,46.95
2023-03-29T14:51:02.773Z,46.74
2023-03-29T14:56:13.907Z,46.75
2023-03-29T15:01:25.346Z,47.04
2023-03-29T15:06:33.381Z,46.99
2023-03-29T15:11:40.012Z,46.89
2023-03-29T15:16:49.476Z,47.03
2023-03-29T15:21:56.835Z,46.99
2023-03-29T15:27:12.436Z,47.03
2023-03-29T15:32:34.961Z,46.97
2023-03-29T15:37:44.587Z,47.04
2023-03-29T15:42:52.274Z,46.97
2023-03-29T15:48:02.075Z,47.07
2023-03-29T15:53:15.026Z,47.02
2023-03-29T15:58:25.953Z,46.88
2023-03-29T16:03:33.319Z,46.91
2023-03-29T16:08:42.072Z,47.04
2023-03-29T16:13:49.447Z,47.07
2023-03-29T16:18:56.926Z,47.17
2023-03-29T16:24:04.569Z,47.17
2023-03-29T16:29:12.513Z,47.13
2023-03-29T16:34:20.337Z,47.09
2023-03-29T16:39:27.828Z,47.21
2023-03-29T16:44:34.972Z,47.27
2023-03-29T16:49:44.341Z,47.26
2023-03-29T16:54:54.353Z,47.17
2023-03-29T17:00:01.516Z,47.23
2023-03-29T17:05:11.195Z,47.34
2023-03-29T17:10:19.040Z,47.29
2023-03-29T17:15:26.580Z,47.40
2023-03-29T17:20:33.770Z,47.46
2023-03-29T17:25:40.994Z,47.51
2023-03-29T17:30:49.058Z,47.44
2023-03-29T17:35:57.811Z,47.47
2023-03-29T17:41:08.069Z,47.66
2023-03-29T17:46:23.463Z,47.71
2023-03-29T17:51:31.144Z,47.74
2023-03-29T17:56:39.695Z,47.70
2023-03-29T18:01:46.971Z,47.82
2023-03-29T18:06:55.127Z,47.92
2023-03-29T18:12:02.344Z,48.08
2023-03-29T18:17:09.838Z,47.98
2023-03-29T18:22:17.974Z,48.13
2023-03-29T18:27:23.481Z,48.25
2023-03-29T18:32:30.598Z,48.36
2023-03-29T18:37:38.025Z,48.34
2023-03-29T18:42:45.154Z,48.58
2023-03-29T18:47:52.511Z,48.57
2023-03-29T18:53:02.417Z,48.71
2023-03-29T18:58:09.676Z,48.82
2023-03-29T19:03:16.909Z,48.79
2023-03-29T19:08:25.845Z,48.88
2023-03-29T19:13:33.084Z,49.00
2023-03-29T19:18:40.270Z,49.18
2023-03-29T19:23:47.530Z,49.29
2023-03-29T19:28:54.635Z,49.35
2023-03-29T19:34:19.791Z,49.45
2023-03-29T19:39:29.570Z,49.53
2023-03-29T19:44:38.495Z,49.59
2023-03-29T19:49:47.095Z,49.59
2023-03-29T19:54:54.413Z,49.84
2023-03-29T20:00:02.214Z,49.93
2023-03-29T20:05:21.882Z,49.89
2023-03-29T20:10:29.339Z,49.88
2023-03-29T20:15:36.518Z,50.09
2023-03-29T20:20:44.758Z,50.21
2023-03-29T20:25:52.729Z,50.41
2023-03-29T20:30:58.302Z,50.36
2023-03-29T20:36:06.819Z,50.50
2023-03-29T20:41:14.339Z,50.45
2023-03-29T20:46:24.089Z,50.53
2023-03-29T20:51:32.225Z,50.69
2023-03-29T20:56:42.635Z,50.91
2023-03-29T21:01:50.528Z,50.85
2023-03-29T21:07:00.972Z,50.95
2023-03-29T21:12:10.479Z,51.05
2023-03-29T21:17:17.600Z,51.14
2023-03-29T21:22:24.804Z,51.28
2023-03-29T21:27:31.915Z,51.32
2023-03-29T21:32:39.186Z,51.47
2023-03-29T21:37:46.485Z,51.51
2023-03-29T21:42:53.608Z,51.59
2023-03-29T21:48:01.013Z,51.72
2023-03-29T21:53:08.616Z,51.75
2023-03-29T21:58:16.190Z,51.98
2023-03-29T22:03:23.412Z,51.95
2023-03-29T22:08:30.909Z,52.03
2023-03-29T22:13:38.946Z,52.25
2023-03-29T22:18:44.756Z,52.22
2023-03-29T22:23:57.071Z,52.47
2023-03-29T22:29:04.693Z,52.49
2023-03-29T22:34:13.036Z,52.63
2023-03-29T22:39:20.162Z,52.70
2023-03-29T22:44:27.293Z,52.74
2023-03-29T22:49:34.382Z,52.86
2023-03-29T22:54:41.439Z,52.92
2023-03-29T22:59:48.538Z,52.94
2023-03-29T23:04:56.948Z,53.10
2023-03-29T23:10:04.234Z,53.15
2023-03-29T23:15:13.876Z,53.14
2023-03-29T23:20:21.381Z,53.31
2023-03-29T23:25:30.190Z,53.58
2023-03-29T23:30:38.802Z,53.75
2023-03-29T23:35:46.828Z,53.72
2023-03-29T23:41:01.013Z,53.86
2023-03-29T23:46:10.813Z,54.01
2023-03-29T23:51:23.262Z,54.08
2023-03-29T23:56:32.646Z,54.25
